MAX weather

Ouro Sogui Airport
Matam, Saint-Louis Region, Senegal

Public forecast

Using degrees Celsius for public forecast. Weather courtesy of forecast.io.

METAR (pilot weather report)

Retrieved 2019/09/19 03:00 UTC (1 hour ago):

GOSM 190300Z 32002KT 8000 TS FEW016 FEW030CB 27/23 Q1010

TAF (pilot weather forecast)

Forecast is more than 12 hours old.

Closest forecast is Saint Louis Airport, 183.5 nm (339.8 km) W. Retrieved 2019/09/18 00:51 UTC (1 day ago):

TAF GOSS 182330Z 1900/1924 23006KT 9999 SCT010